Time;durP1;ratioP1;P1;durP2;ratioP2;P2;SDS_P1;SDS_P2;PMS_P1;PMS_P2;Temp;Humidity;BMP_temperature;BMP_pressure;BME280_temperature;BME280_humidity;BME280_pressure;Samples;Min_cycle;Max_cycle;Signal;HPM_P1;HPM_P2
2023/05/26 00:00:50;;;;;;;;;12.33;9.33;;;;;16.84;53.05;102054.47;4996582;28;45605;-70
2023/05/26 00:03:17;;;;;;;;;10.67;10.67;;;;;16.79;53.41;102066.63;4996310;28;46169;-70
2023/05/26 00:05:43;;;;;;;;;12.00;11.67;;;;;16.74;53.25;102048.28;4980491;28;45405;-69
2023/05/26 00:08:09;;;;;;;;;7.33;7.33;;;;;16.73;53.24;102050.13;4981803;28;45525;-70
2023/05/26 00:10:35;;;;;;;;;14.00;10.00;;;;;16.75;53.46;102062.56;4977873;28;45460;-70
2023/05/26 00:13:00;;;;;;;;;9.33;9.33;;;;;16.69;53.57;102055.97;4982214;28;46286;-70
2023/05/26 00:15:26;;;;;;;;;18.33;16.33;;;;;16.67;53.52;102058.81;4988462;28;45302;-72
2023/05/26 00:17:53;;;;;;;;;10.67;10.33;;;;;16.32;53.62;102005.88;4975727;28;45324;-70
2023/05/26 00:20:18;;;;;;;;;14.67;9.33;;;;;16.60;53.86;102052.31;4992517;28;45274;-70
2023/05/26 00:22:46;;;;;;;;;12.67;10.67;;;;;16.55;53.78;102038.50;4968573;28;47480;-69
2023/05/26 00:25:12;;;;;;;;;12.00;12.00;;;;;16.63;53.60;102052.03;4983511;28;45349;-71
2023/05/26 00:27:37;;;;;;;;;12.33;12.33;;;;;16.30;53.64;102007.03;4995146;28;45361;-70
2023/05/26 00:30:03;;;;;;;;;6.33;6.33;;;;;16.15;53.99;101979.84;4984804;28;45460;-69
2023/05/26 00:32:28;;;;;;;;;15.00;12.00;;;;;16.44;54.24;102046.78;4977078;28;46818;-70
2023/05/26 00:34:53;;;;;;;;;10.67;10.67;;;;;16.45;53.91;102043.09;4979593;28;45250;-68
2023/05/26 00:37:19;;;;;;;;;14.00;12.67;;;;;16.47;54.06;102043.78;4978585;28;45328;-69
2023/05/26 00:39:45;;;;;;;;;12.00;11.00;;;;;16.47;54.07;102046.47;4978854;28;45508;-72
2023/05/26 00:42:11;;;;;;;;;14.00;12.67;;;;;16.49;54.46;102047.16;4984993;28;45471;-68
2023/05/26 00:44:36;;;;;;;;;16.67;12.67;;;;;16.27;54.46;102018.06;4983744;28;45458;-69
2023/05/26 00:47:02;;;;;;;;;14.33;11.67;;;;;16.37;54.63;102040.31;4978462;28;45358;-74
2023/05/26 00:49:27;;;;;;;;;14.33;11.67;;;;;16.35;54.78;102031.56;4989624;28;45179;-71
2023/05/26 00:51:53;;;;;;;;;13.33;13.33;;;;;16.27;55.22;102040.38;4960072;28;52558;-71
2023/05/26 00:54:19;;;;;;;;;18.00;16.33;;;;;16.24;55.15;102045.19;4983306;28;45299;-69
2023/05/26 00:56:45;;;;;;;;;15.67;14.00;;;;;16.12;55.62;102033.81;4990848;28;45278;-70
2023/05/26 00:59:12;;;;;;;;;18.00;13.67;;;;;15.97;55.64;102013.81;4995692;28;45421;-71
2023/05/26 01:01:37;;;;;;;;;14.67;14.67;;;;;16.03;55.77;102022.16;4980206;28;46206;-69
2023/05/26 01:04:03;;;;;;;;;16.00;11.33;;;;;16.11;55.84;102038.34;4990850;28;45341;-71
2023/05/26 01:06:29;;;;;;;;;21.00;16.33;;;;;16.02;56.12;102015.09;4992773;28;45277;-72
2023/05/26 01:08:54;;;;;;;;;15.33;12.00;;;;;16.00;56.04;102024.25;4987847;28;45540;-69
2023/05/26 01:11:40;;;;;;;;;20.67;19.33;;;;;15.73;56.39;101979.50;4986073;28;47036;-70
2023/05/26 01:14:17;;;;;;;;;17.33;12.67;;;;;15.98;56.28;102031.59;4962921;28;45295;-71
2023/05/26 01:16:53;;;;;;;;;18.33;16.33;;;;;15.87;56.97;102026.44;4989102;28;45206;-70
2023/05/26 01:20:07;;;;;;;;;18.67;17.67;;;;;15.83;57.23;102039.31;4973333;28;45378;-70
2023/05/26 01:22:41;;;;;;;;;14.33;14.33;;;;;15.80;57.13;102036.91;4980100;28;45697;-72
2023/05/26 01:25:31;;;;;;;;;17.33;15.33;;;;;15.79;57.01;102046.78;4973065;28;45903;-69
2023/05/26 01:28:25;;;;;;;;;23.67;21.00;;;;;15.72;57.28;102024.22;4998133;28;45446;-71
2023/05/26 01:30:54;;;;;;;;;21.67;18.67;;;;;15.29;57.58;101971.16;4980808;28;45445;-69
2023/05/26 01:33:19;;;;;;;;;23.67;19.67;;;;;15.64;57.84;102044.72;4998989;28;45927;-71
2023/05/26 01:35:45;;;;;;;;;22.00;21.00;;;;;15.56;58.03;102040.03;4989765;28;45350;-71
2023/05/26 01:38:11;;;;;;;;;26.00;21.67;;;;;15.57;58.40;102047.09;4995613;28;45325;-70
2023/05/26 01:40:39;;;;;;;;;20.67;20.67;;;;;15.50;58.70;102046.00;4986501;28;45428;-69
2023/05/26 01:43:27;;;;;;;;;22.00;20.00;;;;;15.01;58.73;101977.38;4987047;28;45817;-69
2023/05/26 01:46:02;;;;;;;;;17.67;17.67;;;;;15.46;59.09;102056.16;4994580;28;45456;-70
2023/05/26 01:48:31;;;;;;;;;18.33;18.33;;;;;15.43;59.14;102055.59;4985669;28;45477;-70
2023/05/26 01:51:01;;;;;;;;;18.67;18.67;;;;;15.40;59.05;102053.19;4995918;28;45547;-68
2023/05/26 01:53:35;;;;;;;;;22.67;18.67;;;;;15.37;59.16;102062.38;4990745;28;46376;-70
2023/05/26 01:56:02;;;;;;;;;21.67;18.33;;;;;15.37;59.36;102061.53;4989277;28;45532;-70
2023/05/26 01:58:28;;;;;;;;;19.00;18.00;;;;;15.33;59.08;102050.25;4990137;28;45515;-69
2023/05/26 02:00:54;;;;;;;;;21.67;21.67;;;;;15.27;58.83;102031.22;4965669;28;45362;-70
2023/05/26 02:03:20;;;;;;;;;19.67;17.00;;;;;15.47;58.76;102065.88;4978927;28;46940;-71
2023/05/26 02:05:45;;;;;;;;;17.67;16.33;;;;;15.46;58.92;102058.84;4961790;28;45354;-71
2023/05/26 02:08:12;;;;;;;;;27.00;20.33;;;;;15.45;58.91;102054.47;4976751;28;45917;-69
2023/05/26 02:10:38;;;;;;;;;18.00;18.00;;;;;15.37;58.68;102045.44;4961922;28;45479;-71
2023/05/26 02:13:04;;;;;;;;;17.67;16.00;;;;;15.33;59.21;102052.94;4994595;28;45668;-72
2023/05/26 02:15:29;;;;;;;;;17.67;15.67;;;;;15.14;59.78;102032.34;4969766;28;46891;-70
2023/05/26 02:17:57;;;;;;;;;16.00;16.00;;;;;15.23;59.59;102049.44;4986361;28;45475;-72
2023/05/26 02:20:25;;;;;;;;;18.67;16.00;;;;;15.21;59.54;102040.66;4963797;28;45459;-70
2023/05/26 02:22:51;;;;;;;;;17.67;16.33;;;;;15.14;59.90;102043.06;4991856;28;45827;-69
2023/05/26 02:25:16;;;;;;;;;19.33;19.33;;;;;15.13;60.26;102060.13;4993496;28;45455;-73
2023/05/26 02:27:42;;;;;;;;;21.33;19.67;;;;;14.99;60.55;102041.81;4988606;28;45417;-70
2023/05/26 02:30:08;;;;;;;;;20.33;17.67;;;;;14.98;60.22;102047.31;4997764;28;45427;-70
2023/05/26 02:32:34;;;;;;;;;20.67;19.67;;;;;15.05;60.30;102051.13;4985809;28;46431;-70
2023/05/26 02:35:00;;;;;;;;;21.33;18.67;;;;;14.95;60.77;102051.13;4978971;28;45315;-71
2023/05/26 02:37:26;;;;;;;;;20.67;16.33;;;;;14.61;60.61;102000.63;4980952;28;45416;-70
2023/05/26 02:39:52;;;;;;;;;20.33;19.33;;;;;14.88;60.90;102058.88;4972672;28;45538;-71
2023/05/26 02:42:18;;;;;;;;;21.00;21.00;;;;;14.74;61.54;102047.72;4988837;28;46290;-73
2023/05/26 02:44:43;;;;;;;;;19.33;17.67;;;;;14.59;62.17;102050.78;4993229;28;45453;-71
2023/05/26 02:47:09;;;;;;;;;24.00;21.00;;;;;14.47;62.64;102045.72;4965211;28;45415;-72
2023/05/26 02:49:35;;;;;;;;;19.00;15.00;;;;;14.51;62.18;102042.63;4981802;28;45603;-71
2023/05/26 02:52:00;;;;;;;;;19.33;18.00;;;;;14.51;61.94;102047.97;4997497;28;46549;-71
2023/05/26 02:54:25;;;;;;;;;20.67;18.33;;;;;14.38;62.62;102035.78;4979434;28;45622;-71
2023/05/26 02:56:51;;;;;;;;;22.67;20.00;;;;;14.10;63.06;102002.63;4986167;28;45416;-72
2023/05/26 02:59:16;;;;;;;;;18.33;16.33;;;;;14.43;62.52;102044.25;4994288;28;45337;-69
2023/05/26 03:01:41;;;;;;;;;25.33;21.33;;;;;14.47;62.36;102056.41;4981964;28;46692;-69
2023/05/26 03:04:07;;;;;;;;;23.00;18.67;;;;;14.39;62.27;102037.47;4981779;28;56585;-69
2023/05/26 03:06:32;;;;;;;;;24.00;19.00;;;;;14.50;62.04;102046.28;4962897;28;45504;-69
2023/05/26 03:08:58;;;;;;;;;17.00;16.00;;;;;14.55;62.26;102046.69;4983886;28;45432;-69
2023/05/26 03:11:23;;;;;;;;;22.33;19.67;;;;;14.42;62.26;102021.16;4993524;28;47816;-67
2023/05/26 03:13:48;;;;;;;;;25.67;17.67;;;;;14.57;62.02;102047.41;4985734;28;45290;-69
2023/05/26 03:16:14;;;;;;;;;17.33;16.00;;;;;14.63;61.67;102062.09;4986106;28;45425;-69
2023/05/26 03:18:39;;;;;;;;;20.67;16.67;;;;;14.51;61.59;102031.06;4986222;28;45448;-69
2023/05/26 03:21:06;;;;;;;;;18.00;16.00;;;;;14.30;61.90;102007.91;4982903;28;47604;-70
2023/05/26 03:23:31;;;;;;;;;17.00;13.00;;;;;14.37;62.10;102031.41;4988250;28;45520;-71
2023/05/26 03:25:56;;;;;;;;;16.67;15.67;;;;;14.40;62.06;102036.50;4989228;28;45401;-69
2023/05/26 03:28:22;;;;;;;;;22.00;15.33;;;;;14.49;62.00;102033.03;4971542;28;45568;-71
2023/05/26 03:30:47;;;;;;;;;20.67;19.00;;;;;14.45;62.00;102042.34;4977358;28;50001;-71
2023/05/26 03:33:13;;;;;;;;;20.67;16.00;;;;;14.40;62.31;102039.16;4960221;28;45496;-72
2023/05/26 03:35:38;;;;;;;;;15.00;14.33;;;;;14.27;62.53;102029.56;4986719;28;45452;-70
2023/05/26 03:38:03;;;;;;;;;14.33;14.33;;;;;14.30;62.29;102023.09;4993378;28;45546;-70
2023/05/26 03:40:29;;;;;;;;;17.00;13.00;;;;;14.36;62.12;102027.91;4978056;28;45322;-69
2023/05/26 03:42:54;;;;;;;;;18.67;16.33;;;;;14.38;61.96;102038.47;4988565;28;45446;-71
2023/05/26 03:45:20;;;;;;;;;16.00;11.00;;;;;14.07;62.10;101989.53;4988584;28;45757;-69
2023/05/26 03:47:45;;;;;;;;;15.33;14.00;;;;;14.41;62.05;102040.84;4962516;28;45299;-70
2023/05/26 03:50:11;;;;;;;;;18.00;15.00;;;;;14.35;62.35;102031.56;4996467;28;45947;-70
2023/05/26 03:52:36;;;;;;;;;20.33;16.33;;;;;14.23;62.38;102019.28;4988412;28;45468;-70
2023/05/26 03:55:01;;;;;;;;;26.00;17.67;;;;;14.32;62.20;102043.38;4993366;28;45298;-70
2023/05/26 03:57:27;;;;;;;;;18.00;16.00;;;;;14.24;62.42;102035.19;4985525;28;45448;-70
2023/05/26 03:59:52;;;;;;;;;17.67;17.67;;;;;14.23;62.60;102033.50;4985605;28;56146;-69
2023/05/26 04:02:19;;;;;;;;;15.67;11.33;;;;;14.25;62.34;102039.56;4984110;28;45231;-69
2023/05/26 04:04:44;;;;;;;;;13.33;10.67;;;;;14.25;62.45;102025.34;4984350;28;45325;-69
2023/05/26 04:07:10;;;;;;;;;12.00;12.00;;;;;13.99;62.00;101975.00;4978608;28;45564;-69
2023/05/26 04:09:35;;;;;;;;;16.67;15.67;;;;;14.39;61.62;102041.00;4982668;28;46505;-69
2023/05/26 04:12:01;;;;;;;;;18.33;15.00;;;;;14.30;61.92;102031.97;4957354;28;45328;-70
2023/05/26 04:14:26;;;;;;;;;19.00;14.33;;;;;14.29;61.98;102043.66;4977469;28;45689;-69
2023/05/26 04:16:52;;;;;;;;;17.67;17.33;;;;;14.23;62.25;102038.03;4983277;28;45203;-70
2023/05/26 04:19:18;;;;;;;;;16.67;16.33;;;;;14.15;62.36;102030.66;4977339;28;46218;-71
2023/05/26 04:21:43;;;;;;;;;20.67;16.00;;;;;14.11;62.42;102034.59;4964701;28;45408;-70
2023/05/26 04:24:09;;;;;;;;;16.67;14.67;;;;;14.14;62.81;102045.00;4980089;28;45414;-70
2023/05/26 04:26:34;;;;;;;;;13.67;12.00;;;;;14.05;62.86;102053.84;4984111;28;45400;-70
2023/05/26 04:29:02;;;;;;;;;15.67;14.67;;;;;13.82;63.17;102026.47;4959342;28;48302;-68
2023/05/26 04:31:31;;;;;;;;;18.33;15.67;;;;;13.45;63.25;101975.38;4976760;28;46112;-70
2023/05/26 04:33:58;;;;;;;;;17.67;16.67;;;;;13.97;63.18;102048.31;4989534;28;45459;-68
2023/05/26 04:36:24;;;;;;;;;26.67;17.33;;;;;13.47;63.14;101980.56;4985027;28;45365;-71
2023/05/26 04:38:49;;;;;;;;;18.00;15.00;;;;;13.87;63.54;102047.44;4988863;28;46150;-71
2023/05/26 04:41:16;;;;;;;;;21.67;19.00;;;;;13.80;63.60;102055.13;4996081;28;45224;-69
2023/05/26 04:43:43;;;;;;;;;18.33;16.00;;;;;13.67;63.96;102044.66;4993993;28;45487;-70
2023/05/26 04:46:11;;;;;;;;;16.33;15.00;;;;;13.75;63.83;102044.00;4964020;28;45563;-69
2023/05/26 04:48:37;;;;;;;;;19.67;15.33;;;;;13.79;63.27;102049.91;4982120;28;45547;-70
2023/05/26 04:51:04;;;;;;;;;17.00;15.33;;;;;13.70;63.56;102060.44;4962438;28;45558;-71
2023/05/26 04:53:29;;;;;;;;;19.00;16.00;;;;;13.73;63.81;102066.50;4988349;28;45332;-70
2023/05/26 04:55:54;;;;;;;;;9.67;9.00;;;;;13.68;64.18;102072.25;4994720;28;45725;-72
2023/05/26 04:58:20;;;;;;;;;17.33;15.67;;;;;13.68;63.94;102064.22;4961649;28;48061;-70
2023/05/26 05:00:45;;;;;;;;;18.00;14.67;;;;;13.68;63.89;102061.56;4974406;28;45305;-69
2023/05/26 05:03:11;;;;;;;;;15.33;15.33;;;;;13.75;63.54;102075.22;4992087;28;45574;-69
2023/05/26 05:05:36;;;;;;;;;20.67;16.00;;;;;13.73;63.81;102075.34;4959472;28;45530;-69
2023/05/26 05:08:01;;;;;;;;;14.67;13.67;;;;;13.70;64.18;102062.25;4982595;28;47900;-69
2023/05/26 05:10:27;;;;;;;;;19.33;17.33;;;;;13.29;63.81;102007.88;4984221;28;45381;-69
2023/05/26 05:12:53;;;;;;;;;17.33;13.67;;;;;13.67;64.18;102084.75;4973519;28;47100;-71
2023/05/26 05:15:22;;;;;;;;;15.67;14.00;;;;;13.70;64.21;102083.63;4977049;28;45443;-70
2023/05/26 05:17:47;;;;;;;;;20.00;17.00;;;;;13.77;63.77;102083.94;4990634;28;46461;-70
2023/05/26 05:20:13;;;;;;;;;19.00;17.00;;;;;13.75;63.54;102078.75;4974870;28;45618;-73
2023/05/26 05:22:38;;;;;;;;;16.00;13.33;;;;;13.93;63.37;102089.69;4983920;28;45454;-70
2023/05/26 05:25:03;;;;;;;;;16.33;14.00;;;;;13.99;62.91;102094.47;4990527;28;46198;-69
2023/05/26 05:27:29;;;;;;;;;14.67;13.00;;;;;13.98;62.98;102087.44;4984376;28;46403;-70
2023/05/26 05:29:54;;;;;;;;;21.33;16.67;;;;;13.95;62.81;102087.72;4963967;28;45404;-71
2023/05/26 05:32:20;;;;;;;;;18.00;18.00;;;;;14.05;62.75;102107.34;4965062;28;45551;-70
2023/05/26 05:34:45;;;;;;;;;20.67;15.00;;;;;14.04;62.44;102102.97;4974097;28;45382;-71
2023/05/26 05:37:10;;;;;;;;;21.67;17.00;;;;;14.06;62.68;102105.50;4980682;28;52740;-68
2023/05/26 05:39:36;;;;;;;;;19.00;16.67;;;;;13.74;62.64;102053.00;4971240;28;46277;-72
2023/05/26 05:42:01;;;;;;;;;19.67;16.33;;;;;14.10;62.45;102106.94;4980174;28;45432;-72
2023/05/26 05:44:26;;;;;;;;;18.67;18.00;;;;;14.16;62.61;102101.88;4950722;28;45465;-71
2023/05/26 05:46:52;;;;;;;;;17.33;15.00;;;;;14.22;61.88;102101.38;4991187;28;46209;-71
2023/05/26 05:49:17;;;;;;;;;21.67;16.67;;;;;14.24;61.81;102099.41;4986218;28;45353;-70
2023/05/26 05:51:42;;;;;;;;;16.33;16.33;;;;;14.22;61.60;102085.31;4980243;28;45546;-71
2023/05/26 05:54:08;;;;;;;;;18.67;15.33;;;;;14.37;61.40;102112.53;4988944;28;45487;-71
2023/05/26 05:56:33;;;;;;;;;18.33;16.33;;;;;14.40;61.45;102092.69;4981085;28;45685;-69
2023/05/26 05:58:58;;;;;;;;;17.33;16.00;;;;;14.43;60.95;102057.66;4983559;28;45227;-68
2023/05/26 06:01:24;;;;;;;;;23.00;18.33;;;;;15.12;59.47;102114.69;4987448;28;45266;-70
2023/05/26 06:03:50;;;;;;;;;17.33;15.33;;;;;15.54;58.42;102111.72;4985552;28;45618;-68
2023/05/26 06:06:16;;;;;;;;;22.00;15.67;;;;;16.04;57.65;102116.88;4989880;28;45668;-70
2023/05/26 06:08:41;;;;;;;;;17.33;14.67;;;;;16.62;56.08;102120.16;4969408;28;46090;-71
2023/05/26 06:11:07;;;;;;;;;17.67;13.00;;;;;17.05;53.97;102120.47;4977681;28;45459;-71
2023/05/26 06:13:33;;;;;;;;;19.67;16.67;;;;;17.24;53.32;102117.63;4979713;28;45531;-71
2023/05/26 06:15:58;;;;;;;;;15.33;14.00;;;;;17.48;52.39;102108.94;4992933;28;48526;-69
2023/05/26 06:18:24;;;;;;;;;15.33;13.00;;;;;17.96;51.38;102121.06;4981407;28;45524;-70
2023/05/26 06:20:50;;;;;;;;;16.00;14.67;;;;;18.27;50.90;102119.56;4984454;28;46913;-72
2023/05/26 06:23:16;;;;;;;;;20.67;14.67;;;;;18.70;49.29;102123.13;4979763;28;45584;-72
2023/05/26 06:25:41;;;;;;;;;16.33;13.67;;;;;18.94;48.88;102101.63;4989897;28;45559;-73
2023/05/26 06:28:07;;;;;;;;;17.67;16.67;;;;;19.11;47.36;102065.59;4983367;28;45654;-71
2023/05/26 06:30:32;;;;;;;;;16.67;13.33;;;;;19.91;46.93;102122.41;4985873;28;45405;-69
2023/05/26 06:32:58;;;;;;;;;16.33;16.00;;;;;20.33;45.75;102116.69;4967464;28;45428;-70
2023/05/26 06:35:23;;;;;;;;;16.33;14.00;;;;;20.47;44.83;102111.63;4975068;28;47464;-70
2023/05/26 06:37:49;;;;;;;;;16.67;16.00;;;;;20.57;44.03;102099.56;4967239;28;46124;-70
2023/05/26 06:40:14;;;;;;;;;17.33;12.67;;;;;20.91;43.88;102120.84;4987589;28;45545;-69
2023/05/26 06:42:41;;;;;;;;;14.33;11.67;;;;;20.90;43.06;102083.19;4983828;28;45223;-71
2023/05/26 06:45:06;;;;;;;;;17.67;14.33;;;;;21.23;42.86;102100.00;4985826;28;46723;-71
2023/05/26 06:47:32;;;;;;;;;19.67;13.67;;;;;21.48;42.45;102106.94;4991272;28;45424;-71
2023/05/26 06:49:57;;;;;;;;;17.00;14.67;;;;;21.66;41.32;102108.47;4985889;28;45518;-70
2023/05/26 06:52:22;;;;;;;;;17.67;14.00;;;;;21.55;41.47;102053.75;4978878;28;45525;-70
2023/05/26 06:54:48;;;;;;;;;16.00;15.00;;;;;21.99;40.71;102101.66;4970137;28;46623;-71
2023/05/26 06:57:13;;;;;;;;;16.67;13.67;;;;;22.15;40.52;102111.50;4971298;28;45741;-72
2023/05/26 06:59:40;;;;;;;;;20.00;17.33;;;;;22.24;40.41;102109.56;4977077;28;45727;-70
2023/05/26 07:02:06;;;;;;;;;10.33;8.00;;;;;22.40;39.93;102103.94;4984415;28;45713;-71
2023/05/26 07:04:31;;;;;;;;;25.00;18.67;;;;;22.33;39.61;102062.38;4984640;28;46464;-70
2023/05/26 07:06:57;;;;;;;;;15.67;13.67;;;;;22.55;39.26;102055.97;4985754;28;45465;-70
2023/05/26 07:09:22;;;;;;;;;16.33;15.67;;;;;22.68;39.02;102066.13;4985574;28;45398;-70
2023/05/26 07:11:47;;;;;;;;;15.67;14.67;;;;;23.16;38.69;102112.53;4966394;28;45361;-71
2023/05/26 07:14:13;;;;;;;;;17.67;16.67;;;;;22.93;37.47;102064.75;4974924;28;46442;-71
2023/05/26 07:16:38;;;;;;;;;21.00;18.00;;;;;22.97;38.05;102009.06;4981130;28;45464;-71
2023/05/26 07:19:04;;;;;;;;;18.33;16.00;;;;;23.85;37.33;102096.47;4967051;28;45453;-71
2023/05/26 07:21:31;;;;;;;;;15.33;14.67;;;;;24.16;36.44;102104.16;4976131;28;45449;-71
2023/05/26 07:23:56;;;;;;;;;18.67;14.67;;;;;24.45;35.85;102094.94;4986206;28;46806;-70
2023/05/26 07:26:22;;;;;;;;;18.67;16.67;;;;;24.33;35.28;102100.09;4985903;28;45300;-70
2023/05/26 07:28:49;;;;;;;;;17.00;15.33;;;;;24.12;35.74;102079.28;4985935;28;45437;-70
2023/05/26 07:31:14;;;;;;;;;18.33;15.67;;;;;24.05;35.69;102047.69;4981583;28;45478;-71
2023/05/26 07:33:40;;;;;;;;;14.67;14.33;;;;;24.62;35.16;102104.38;4977331;28;45726;-71
2023/05/26 07:36:05;;;;;;;;;17.33;16.67;;;;;24.92;35.10;102099.47;4958552;28;46062;-71
2023/05/26 07:38:31;;;;;;;;;15.67;15.00;;;;;25.31;33.97;102095.16;4971764;28;45515;-71
2023/05/26 07:40:56;;;;;;;;;19.00;16.00;;;;;25.29;33.27;102064.59;4963669;28;45515;-71
2023/05/26 07:43:21;;;;;;;;;17.67;14.67;;;;;25.69;33.63;102100.84;4978607;28;45464;-70
2023/05/26 07:45:47;;;;;;;;;14.33;14.33;;;;;26.11;32.96;102091.31;4976513;28;45370;-71
2023/05/26 07:48:14;;;;;;;;;15.33;15.00;;;;;26.30;32.68;102098.59;4976902;28;45287;-71
2023/05/26 07:50:40;;;;;;;;;17.33;16.00;;;;;25.90;32.12;102007.13;4976861;28;45464;-73
2023/05/26 07:53:05;;;;;;;;;16.00;14.67;;;;;26.64;31.86;102093.88;4982193;28;46032;-70
2023/05/26 07:55:31;;;;;;;;;20.67;16.00;;;;;26.80;31.74;102089.78;4982523;28;45366;-70
2023/05/26 07:57:56;;;;;;;;;19.67;15.00;;;;;26.71;31.12;102081.03;4992369;28;45231;-69
2023/05/26 08:00:22;;;;;;;;;15.67;15.67;;;;;26.64;31.48;102089.25;4972025;28;45239;-68
2023/05/26 08:02:47;;;;;;;;;15.33;14.00;;;;;26.34;31.74;102039.88;4986101;28;45574;-70
2023/05/26 08:05:13;;;;;;;;;16.00;16.00;;;;;26.60;31.33;102047.06;4980401;28;45467;-69
2023/05/26 08:07:38;;;;;;;;;17.33;15.67;;;;;27.06;31.18;102097.00;4959775;28;45546;-69
2023/05/26 08:10:04;;;;;;;;;15.67;14.00;;;;;26.69;30.87;102047.66;4973013;28;45529;-70
2023/05/26 08:12:29;;;;;;;;;16.67;14.00;;;;;27.04;31.25;102053.56;4984610;28;47949;-70
2023/05/26 08:14:55;;;;;;;;;16.33;15.33;;;;;27.61;30.27;102097.19;4979093;28;45668;-70
2023/05/26 08:17:20;;;;;;;;;20.33;17.00;;;;;27.72;29.86;102080.94;4978126;28;45456;-69
2023/05/26 08:19:46;;;;;;;;;19.00;17.67;;;;;27.69;29.75;102080.53;4967824;28;45517;-70
2023/05/26 08:22:11;;;;;;;;;17.67;16.67;;;;;27.81;29.43;102095.13;4984207;28;46788;-70
2023/05/26 08:24:36;;;;;;;;;16.67;14.67;;;;;28.02;29.90;102091.09;4984251;28;46353;-70
2023/05/26 08:27:02;;;;;;;;;17.00;13.00;;;;;27.76;29.12;102037.56;4974149;28;45503;-68
2023/05/26 08:29:27;;;;;;;;;14.33;13.00;;;;;27.97;29.87;102078.13;4974819;28;45444;-69
2023/05/26 08:31:53;;;;;;;;;16.33;14.00;;;;;28.09;29.00;102091.91;4964994;28;46291;-71
2023/05/26 08:34:18;;;;;;;;;17.33;16.33;;;;;28.09;30.05;102084.53;4955307;28;46367;-72
2023/05/26 08:36:45;;;;;;;;;15.67;14.33;;;;;28.46;29.30;102093.56;4983465;28;45201;-70
2023/05/26 08:39:10;;;;;;;;;19.00;15.33;;;;;28.28;28.41;102051.72;4977676;28;45250;-69
2023/05/26 08:41:43;;;;;;;;;14.33;12.33;;;;;28.13;28.87;102085.72;4978883;28;45762;-69
2023/05/26 08:44:08;;;;;;;;;14.67;13.33;;;;;28.30;28.86;102093.34;4984171;28;45385;-70
2023/05/26 08:46:36;;;;;;;;;15.00;13.33;;;;;28.39;28.83;102081.03;4990127;28;50761;-71
2023/05/26 08:49:02;;;;;;;;;19.00;14.00;;;;;28.70;29.55;102080.81;4966975;28;45528;-71
2023/05/26 08:51:31;;;;;;;;;11.00;10.67;;;;;29.01;28.11;102078.91;4956170;28;48156;-68
2023/05/26 08:53:57;;;;;;;;;14.67;13.00;;;;;29.44;28.33;102077.81;4974218;28;45502;-68
2023/05/26 08:56:22;;;;;;;;;14.00;14.00;;;;;29.52;26.65;102028.16;4969028;28;45230;-68
2023/05/26 08:58:49;;;;;;;;;12.33;12.33;;;;;30.04;26.51;102083.09;4973171;28;45483;-68
2023/05/26 09:01:15;;;;;;;;;14.33;12.67;;;;;29.81;26.10;102040.88;4977539;28;48393;-67
2023/05/26 09:03:40;;;;;;;;;13.33;12.67;;;;;30.27;25.84;102077.53;4995387;28;45333;-69
2023/05/26 09:06:06;;;;;;;;;15.67;13.00;;;;;30.34;25.76;102086.47;4982254;28;45556;-66
2023/05/26 09:08:31;;;;;;;;;15.67;14.33;;;;;30.32;26.11;102085.88;4992007;28;45561;-67
2023/05/26 09:10:57;;;;;;;;;15.33;13.33;;;;;30.30;26.03;102032.31;4983493;28;47747;-67
2023/05/26 09:13:22;;;;;;;;;14.33;12.33;;;;;30.88;25.30;102067.78;4978602;28;45459;-67
2023/05/26 09:15:52;;;;;;;;;11.00;11.00;;;;;31.18;24.55;102071.06;4979805;28;45740;-66
2023/05/26 09:18:17;;;;;;;;;20.67;15.00;;;;;31.12;24.98;102068.44;4995246;28;45452;-67
2023/05/26 09:20:45;;;;;;;;;11.67;10.33;;;;;31.25;24.88;102081.06;4990967;28;47339;-68
2023/05/26 09:23:11;;;;;;;;;15.00;13.33;;;;;31.70;24.40;102047.94;4979303;28;45637;-68
2023/05/26 09:25:40;;;;;;;;;17.00;15.67;;;;;32.27;23.67;102073.25;4984262;28;45508;-68
2023/05/26 09:28:07;;;;;;;;;13.33;11.67;;;;;32.72;23.56;102088.59;4989005;28;45474;-67
2023/05/26 09:30:40;;;;;;;;;16.67;13.33;;;;;33.06;22.87;102089.25;4983740;28;48595;-68
2023/05/26 09:33:09;;;;;;;;;18.67;14.33;;;;;33.63;22.77;102073.97;4977484;28;45618;-68
2023/05/26 09:35:39;;;;;;;;;12.67;12.67;;;;;34.22;21.25;102074.56;4984017;28;45431;-73
2023/05/26 09:38:07;;;;;;;;;17.00;15.33;;;;;34.49;21.20;102087.41;4978528;28;45561;-67
2023/05/26 09:40:33;;;;;;;;;21.67;18.67;;;;;34.21;21.38;102066.56;4977849;28;46821;-67
2023/05/26 09:42:59;;;;;;;;;17.33;14.67;;;;;33.91;21.26;102079.16;4974587;28;45534;-66
2023/05/26 09:45:25;;;;;;;;;17.00;14.67;;;;;33.42;21.91;102084.84;4984857;28;45389;-69
2023/05/26 09:47:56;;;;;;;;;17.33;16.33;;;;;33.73;22.39;102087.84;4980001;28;45337;-70
2023/05/26 09:50:22;;;;;;;;;11.67;8.33;;;;;34.01;22.02;102070.91;4973015;28;46571;-68
2023/05/26 09:52:49;;;;;;;;;12.00;12.00;;;;;33.95;21.55;102080.25;4979601;28;45567;-67
2023/05/26 09:55:15;;;;;;;;;16.67;16.67;;;;;33.51;21.50;102083.28;4978372;28;45354;-68
2023/05/26 09:57:41;;;;;;;;;16.33;16.33;;;;;32.97;22.77;102025.50;4981307;28;45370;-67
2023/05/26 10:00:16;;;;;;;;;18.67;16.00;;;;;32.82;22.58;102082.38;4990017;28;46867;-67
2023/05/26 10:02:42;;;;;;;;;16.67;15.33;;;;;31.96;23.90;102063.72;4991882;28;45341;-68
2023/05/26 10:05:08;;;;;;;;;11.67;11.67;;;;;30.95;25.11;102086.81;4990185;28;45262;-70
2023/05/26 10:07:34;;;;;;;;;16.33;13.67;;;;;30.17;25.67;102078.16;4986701;28;45230;-67
2023/05/26 10:10:01;;;;;;;;;13.33;13.33;;;;;29.15;27.13;102068.59;4988932;28;47409;-67
2023/05/26 10:12:36;;;;;;;;;14.67;14.00;;;;;28.29;28.67;102086.22;4975187;28;45467;-70
2023/05/26 10:15:03;;;;;;;;;18.00;15.00;;;;;27.23;29.22;102035.31;4976139;28;45496;-66
2023/05/26 10:17:30;;;;;;;;;13.00;13.00;;;;;26.84;30.84;102064.59;4969052;28;45612;-68
2023/05/26 10:19:57;;;;;;;;;13.67;13.67;;;;;26.33;31.60;102094.59;4988486;28;47436;-67
2023/05/26 10:22:32;;;;;;;;;14.33;11.00;;;;;25.80;32.29;102085.72;4985723;28;45521;-68
2023/05/26 10:25:02;;;;;;;;;15.67;15.00;;;;;25.12;33.80;102084.03;4983355;28;45428;-68
2023/05/26 10:27:38;;;;;;;;;14.67;14.67;;;;;24.92;34.48;102083.13;4977650;28;45318;-69
2023/05/26 10:30:11;;;;;;;;;18.67;17.33;;;;;24.79;34.81;102078.50;4989751;28;46046;-69
2023/05/26 10:32:57;;;;;;;;;14.00;14.00;;;;;24.53;34.96;102079.28;4984595;28;45577;-69
2023/05/26 10:35:31;;;;;;;;;17.33;15.67;;;;;24.24;35.82;102074.94;4980698;28;45517;-68
2023/05/26 10:38:12;;;;;;;;;20.00;16.33;;;;;23.93;36.44;102077.28;4992945;28;45278;-68
2023/05/26 10:40:44;;;;;;;;;22.67;18.67;;;;;23.84;37.02;102073.91;4973816;28;47072;-70
2023/05/26 10:43:18;;;;;;;;;16.67;15.67;;;;;23.67;37.22;102072.53;4980622;28;45624;-69
2023/05/26 10:45:45;;;;;;;;;20.00;16.00;;;;;23.54;37.52;102073.22;4971952;28;45504;-68
2023/05/26 10:48:11;;;;;;;;;17.67;15.33;;;;;23.40;37.51;102076.00;4983540;28;45472;-68
2023/05/26 10:50:58;;;;;;;;;23.00;19.67;;;;;23.32;37.94;102069.72;4968469;28;45850;-70
2023/05/26 10:53:25;;;;;;;;;18.67;15.67;;;;;23.23;37.84;102065.47;4972146;28;45492;-68
2023/05/26 10:56:04;;;;;;;;;19.00;16.67;;;;;23.21;38.29;102059.38;4979188;28;45402;-68
2023/05/26 10:58:34;;;;;;;;;16.33;15.67;;;;;23.15;38.80;102054.72;4981806;28;45286;-67
2023/05/26 11:01:01;;;;;;;;;14.00;13.00;;;;;23.07;39.01;102065.72;4984534;28;46303;-65
2023/05/26 11:03:41;;;;;;;;;16.33;16.00;;;;;22.22;39.57;101932.81;4987393;28;45495;-67
2023/05/26 11:06:08;;;;;;;;;22.33;17.67;;;;;22.76;39.39;102026.16;4985152;28;45197;-69
2023/05/26 11:08:44;;;;;;;;;19.67;18.33;;;;;22.63;40.27;102052.31;4982479;28;45481;-68